sensor_id;sensor_type;location;lat;lon;timestamp;temperature;humidity
45765;DHT22;31474;45.332;10.230;2023-06-01T00:01:47;22.50;95.40
45765;DHT22;31474;45.332;10.230;2023-06-01T00:04:13;22.50;95.60
45765;DHT22;31474;45.332;10.230;2023-06-01T00:06:39;22.50;95.60
45765;DHT22;31474;45.332;10.230;2023-06-01T00:09:05;22.50;95.70
45765;DHT22;31474;45.332;10.230;2023-06-01T00:11:30;22.50;95.60
45765;DHT22;31474;45.332;10.230;2023-06-01T00:13:56;22.50;95.40
45765;DHT22;31474;45.332;10.230;2023-06-01T00:16:23;22.50;95.50
45765;DHT22;31474;45.332;10.230;2023-06-01T00:18:48;22.50;95.50
45765;DHT22;31474;45.332;10.230;2023-06-01T00:21:14;22.50;95.40
45765;DHT22;31474;45.332;10.230;2023-06-01T00:23:40;22.50;95.20
45765;DHT22;31474;45.332;10.230;2023-06-01T00:26:07;22.50;95.20
45765;DHT22;31474;45.332;10.230;2023-06-01T00:28:34;22.50;95.30
45765;DHT22;31474;45.332;10.230;2023-06-01T00:30:59;22.50;95.20
45765;DHT22;31474;45.332;10.230;2023-06-01T00:33:25;22.60;95.50
45765;DHT22;31474;45.332;10.230;2023-06-01T00:35:52;22.50;95.40
45765;DHT22;31474;45.332;10.230;2023-06-01T00:38:17;22.50;95.40
45765;DHT22;31474;45.332;10.230;2023-06-01T00:40:43;22.50;95.50
45765;DHT22;31474;45.332;10.230;2023-06-01T00:43:09;22.50;95.50
45765;DHT22;31474;45.332;10.230;2023-06-01T00:45:35;22.50;95.70
45765;DHT22;31474;45.332;10.230;2023-06-01T00:48:04;22.50;95.70
45765;DHT22;31474;45.332;10.230;2023-06-01T00:50:30;22.50;95.80
45765;DHT22;31474;45.332;10.230;2023-06-01T00:52:57;22.50;95.90
45765;DHT22;31474;45.332;10.230;2023-06-01T00:55:24;22.50;96.10
45765;DHT22;31474;45.332;10.230;2023-06-01T00:57:50;22.50;96.10
45765;DHT22;31474;45.332;10.230;2023-06-01T01:00:17;22.50;95.90
45765;DHT22;31474;45.332;10.230;2023-06-01T01:02:43;22.50;96.00
45765;DHT22;31474;45.332;10.230;2023-06-01T01:05:10;22.50;96.00
45765;DHT22;31474;45.332;10.230;2023-06-01T01:07:51;22.50;95.80
45765;DHT22;31474;45.332;10.230;2023-06-01T01:12:53;22.50;96.70
45765;DHT22;31474;45.332;10.230;2023-06-01T01:15:32;22.40;96.10
45765;DHT22;31474;45.332;10.230;2023-06-01T01:18:04;22.40;96.20
45765;DHT22;31474;45.332;10.230;2023-06-01T01:20:41;22.30;96.30
45765;DHT22;31474;45.332;10.230;2023-06-01T01:23:38;22.30;96.60
45765;DHT22;31474;45.332;10.230;2023-06-01T01:26:24;22.30;96.70
45765;DHT22;31474;45.332;10.230;2023-06-01T01:28:57;22.30;95.80
45765;DHT22;31474;45.332;10.230;2023-06-01T01:31:26;22.30;96.00
45765;DHT22;31474;45.332;10.230;2023-06-01T01:33:55;22.20;96.10
45765;DHT22;31474;45.332;10.230;2023-06-01T01:36:21;22.20;96.30
45765;DHT22;31474;45.332;10.230;2023-06-01T01:38:48;22.10;96.70
45765;DHT22;31474;45.332;10.230;2023-06-01T01:41:13;22.10;96.80
45765;DHT22;31474;45.332;10.230;2023-06-01T01:43:39;22.10;96.90
45765;DHT22;31474;45.332;10.230;2023-06-01T01:49:00;22.00;97.20
45765;DHT22;31474;45.332;10.230;2023-06-01T01:51:50;22.00;97.60
45765;DHT22;31474;45.332;10.230;2023-06-01T01:54:16;22.00;97.80
45765;DHT22;31474;45.332;10.230;2023-06-01T01:56:43;22.00;97.30
45765;DHT22;31474;45.332;10.230;2023-06-01T01:59:10;21.90;97.40
45765;DHT22;31474;45.332;10.230;2023-06-01T02:01:36;21.80;97.50
45765;DHT22;31474;45.332;10.230;2023-06-01T02:04:04;21.80;97.60
45765;DHT22;31474;45.332;10.230;2023-06-01T02:06:32;21.70;97.70
45765;DHT22;31474;45.332;10.230;2023-06-01T02:08:58;21.70;97.80
45765;DHT22;31474;45.332;10.230;2023-06-01T02:11:24;21.70;97.50
45765;DHT22;31474;45.332;10.230;2023-06-01T02:13:50;21.70;97.30
45765;DHT22;31474;45.332;10.230;2023-06-01T02:16:15;21.70;97.40
45765;DHT22;31474;45.332;10.230;2023-06-01T02:18:43;21.70;97.50
45765;DHT22;31474;45.332;10.230;2023-06-01T02:21:14;21.70;97.50
45765;DHT22;31474;45.332;10.230;2023-06-01T02:23:40;21.70;97.50
45765;DHT22;31474;45.332;10.230;2023-06-01T02:26:07;21.70;97.30
45765;DHT22;31474;45.332;10.230;2023-06-01T02:28:32;21.60;97.10
45765;DHT22;31474;45.332;10.230;2023-06-01T02:30:58;21.60;97.00
45765;DHT22;31474;45.332;10.230;2023-06-01T02:33:24;21.60;96.90
45765;DHT22;31474;45.332;10.230;2023-06-01T02:35:52;21.60;96.80
45765;DHT22;31474;45.332;10.230;2023-06-01T02:38:17;21.60;96.80
45765;DHT22;31474;45.332;10.230;2023-06-01T02:40:43;21.50;96.80
45765;DHT22;31474;45.332;10.230;2023-06-01T02:43:08;21.50;97.00
45765;DHT22;31474;45.332;10.230;2023-06-01T02:45:34;21.50;97.10
45765;DHT22;31474;45.332;10.230;2023-06-01T02:48:00;21.50;97.20
45765;DHT22;31474;45.332;10.230;2023-06-01T02:50:26;21.50;97.30
45765;DHT22;31474;45.332;10.230;2023-06-01T02:52:51;21.50;97.50
45765;DHT22;31474;45.332;10.230;2023-06-01T02:55:17;21.50;97.70
45765;DHT22;31474;45.332;10.230;2023-06-01T02:57:43;21.40;97.90
45765;DHT22;31474;45.332;10.230;2023-06-01T03:00:09;21.30;97.70
45765;DHT22;31474;45.332;10.230;2023-06-01T03:02:50;21.30;97.60
45765;DHT22;31474;45.332;10.230;2023-06-01T03:05:18;21.20;97.80
45765;DHT22;31474;45.332;10.230;2023-06-01T03:07:47;21.30;97.60
45765;DHT22;31474;45.332;10.230;2023-06-01T03:10:13;21.30;97.70
45765;DHT22;31474;45.332;10.230;2023-06-01T03:12:39;21.30;97.80
45765;DHT22;31474;45.332;10.230;2023-06-01T03:15:05;21.30;97.70
45765;DHT22;31474;45.332;10.230;2023-06-01T03:17:31;21.30;97.90
45765;DHT22;31474;45.332;10.230;2023-06-01T03:19:58;21.20;97.80
45765;DHT22;31474;45.332;10.230;2023-06-01T03:22:24;21.20;97.80
45765;DHT22;31474;45.332;10.230;2023-06-01T03:24:50;21.20;97.80
45765;DHT22;31474;45.332;10.230;2023-06-01T03:27:18;21.20;97.90
45765;DHT22;31474;45.332;10.230;2023-06-01T03:29:47;21.20;98.40
45765;DHT22;31474;45.332;10.230;2023-06-01T03:32:13;21.20;98.10
45765;DHT22;31474;45.332;10.230;2023-06-01T03:34:39;21.20;98.30
45765;DHT22;31474;45.332;10.230;2023-06-01T03:37:06;21.10;98.10
45765;DHT22;31474;45.332;10.230;2023-06-01T03:39:33;21.10;98.10
45765;DHT22;31474;45.332;10.230;2023-06-01T03:42:00;21.10;98.20
45765;DHT22;31474;45.332;10.230;2023-06-01T03:44:25;21.10;98.00
45765;DHT22;31474;45.332;10.230;2023-06-01T03:46:51;21.10;98.00
45765;DHT22;31474;45.332;10.230;2023-06-01T03:49:17;21.10;98.00
45765;DHT22;31474;45.332;10.230;2023-06-01T03:51:42;21.00;98.20
45765;DHT22;31474;45.332;10.230;2023-06-01T03:54:08;21.10;98.10
45765;DHT22;31474;45.332;10.230;2023-06-01T03:56:34;21.00;98.10
45765;DHT22;31474;45.332;10.230;2023-06-01T03:59:00;20.90;98.20
45765;DHT22;31474;45.332;10.230;2023-06-01T04:01:27;20.90;98.40
45765;DHT22;31474;45.332;10.230;2023-06-01T04:03:55;20.90;98.30
45765;DHT22;31474;45.332;10.230;2023-06-01T04:06:21;20.90;98.30
45765;DHT22;31474;45.332;10.230;2023-06-01T04:08:47;20.90;98.20
45765;DHT22;31474;45.332;10.230;2023-06-01T04:11:15;20.90;98.20
45765;DHT22;31474;45.332;10.230;2023-06-01T04:13:41;20.90;98.20
45765;DHT22;31474;45.332;10.230;2023-06-01T04:16:07;20.90;98.30
45765;DHT22;31474;45.332;10.230;2023-06-01T04:18:33;21.00;98.40
45765;DHT22;31474;45.332;10.230;2023-06-01T04:20:58;21.00;98.30
45765;DHT22;31474;45.332;10.230;2023-06-01T04:23:24;21.00;98.40
45765;DHT22;31474;45.332;10.230;2023-06-01T04:25:50;21.10;98.50
45765;DHT22;31474;45.332;10.230;2023-06-01T04:28:24;21.10;98.50
45765;DHT22;31474;45.332;10.230;2023-06-01T04:30:50;21.20;98.50
45765;DHT22;31474;45.332;10.230;2023-06-01T04:33:17;21.20;98.40
45765;DHT22;31474;45.332;10.230;2023-06-01T04:35:43;21.30;98.50
45765;DHT22;31474;45.332;10.230;2023-06-01T04:38:09;21.40;98.50
45765;DHT22;31474;45.332;10.230;2023-06-01T04:40:35;21.40;98.50
45765;DHT22;31474;45.332;10.230;2023-06-01T04:43:01;21.60;98.50
45765;DHT22;31474;45.332;10.230;2023-06-01T04:45:29;21.60;98.40
45765;DHT22;31474;45.332;10.230;2023-06-01T04:47:59;21.60;98.40
45765;DHT22;31474;45.332;10.230;2023-06-01T04:50:25;21.70;98.30
45765;DHT22;31474;45.332;10.230;2023-06-01T04:52:54;21.80;98.40
45765;DHT22;31474;45.332;10.230;2023-06-01T04:55:21;21.90;98.40
45765;DHT22;31474;45.332;10.230;2023-06-01T04:57:46;21.90;98.20
45765;DHT22;31474;45.332;10.230;2023-06-01T05:00:14;22.00;98.50
45765;DHT22;31474;45.332;10.230;2023-06-01T05:02:43;22.20;98.40
45765;DHT22;31474;45.332;10.230;2023-06-01T05:05:10;22.30;98.00
45765;DHT22;31474;45.332;10.230;2023-06-01T05:07:37;22.40;97.80
45765;DHT22;31474;45.332;10.230;2023-06-01T05:10:03;22.50;98.00
45765;DHT22;31474;45.332;10.230;2023-06-01T05:12:32;22.60;98.00
45765;DHT22;31474;45.332;10.230;2023-06-01T05:14:57;22.60;98.20
45765;DHT22;31474;45.332;10.230;2023-06-01T05:17:23;22.80;98.10
45765;DHT22;31474;45.332;10.230;2023-06-01T05:19:48;22.90;97.80
45765;DHT22;31474;45.332;10.230;2023-06-01T05:22:14;23.00;97.80
45765;DHT22;31474;45.332;10.230;2023-06-01T05:24:40;23.10;97.90
45765;DHT22;31474;45.332;10.230;2023-06-01T05:27:06;23.20;97.90
45765;DHT22;31474;45.332;10.230;2023-06-01T05:29:32;23.30;98.10
45765;DHT22;31474;45.332;10.230;2023-06-01T05:31:57;23.40;97.70
45765;DHT22;31474;45.332;10.230;2023-06-01T05:34:23;23.60;97.50
45765;DHT22;31474;45.332;10.230;2023-06-01T05:36:49;23.70;97.10
45765;DHT22;31474;45.332;10.230;2023-06-01T05:39:15;23.70;97.00
45765;DHT22;31474;45.332;10.230;2023-06-01T05:41:40;23.90;97.00
45765;DHT22;31474;45.332;10.230;2023-06-01T05:44:06;23.90;96.40
45765;DHT22;31474;45.332;10.230;2023-06-01T05:46:32;23.90;96.80
45765;DHT22;31474;45.332;10.230;2023-06-01T05:48:58;24.10;96.70
45765;DHT22;31474;45.332;10.230;2023-06-01T05:51:23;24.30;96.40
45765;DHT22;31474;45.332;10.230;2023-06-01T05:53:49;24.40;96.50
45765;DHT22;31474;45.332;10.230;2023-06-01T05:56:15;24.40;96.10
45765;DHT22;31474;45.332;10.230;2023-06-01T05:58:42;24.40;96.00
45765;DHT22;31474;45.332;10.230;2023-06-01T06:01:08;24.60;96.00
45765;DHT22;31474;45.332;10.230;2023-06-01T06:03:34;24.70;95.80
45765;DHT22;31474;45.332;10.230;2023-06-01T06:06:00;24.80;95.70
45765;DHT22;31474;45.332;10.230;2023-06-01T06:08:26;24.90;95.30
45765;DHT22;31474;45.332;10.230;2023-06-01T06:10:52;24.90;95.20
45765;DHT22;31474;45.332;10.230;2023-06-01T06:13:18;25.00;95.50
45765;DHT22;31474;45.332;10.230;2023-06-01T06:15:44;25.10;94.90
45765;DHT22;31474;45.332;10.230;2023-06-01T06:18:10;25.20;94.60
45765;DHT22;31474;45.332;10.230;2023-06-01T06:20:35;25.30;94.70
45765;DHT22;31474;45.332;10.230;2023-06-01T06:23:01;25.40;94.90
45765;DHT22;31474;45.332;10.230;2023-06-01T06:25:27;25.40;94.10
45765;DHT22;31474;45.332;10.230;2023-06-01T06:27:52;25.50;94.50
45765;DHT22;31474;45.332;10.230;2023-06-01T06:30:18;25.60;94.30
45765;DHT22;31474;45.332;10.230;2023-06-01T06:32:44;25.60;94.10
45765;DHT22;31474;45.332;10.230;2023-06-01T06:35:10;25.70;94.70
45765;DHT22;31474;45.332;10.230;2023-06-01T06:37:39;25.80;94.30
45765;DHT22;31474;45.332;10.230;2023-06-01T06:40:06;25.90;94.20
45765;DHT22;31474;45.332;10.230;2023-06-01T06:42:32;25.90;94.20
45765;DHT22;31474;45.332;10.230;2023-06-01T06:44:57;26.10;94.50
45765;DHT22;31474;45.332;10.230;2023-06-01T06:47:23;26.30;94.20
45765;DHT22;31474;45.332;10.230;2023-06-01T06:49:50;26.40;93.90
45765;DHT22;31474;45.332;10.230;2023-06-01T06:52:16;26.50;93.90
45765;DHT22;31474;45.332;10.230;2023-06-01T06:54:43;26.50;93.60
45765;DHT22;31474;45.332;10.230;2023-06-01T06:57:09;26.50;93.60
45765;DHT22;31474;45.332;10.230;2023-06-01T06:59:35;26.80;93.60
45765;DHT22;31474;45.332;10.230;2023-06-01T07:02:01;26.80;93.20
45765;DHT22;31474;45.332;10.230;2023-06-01T07:04:30;26.90;93.60
45765;DHT22;31474;45.332;10.230;2023-06-01T07:06:56;27.00;92.80
45765;DHT22;31474;45.332;10.230;2023-06-01T07:09:21;27.00;92.90
45765;DHT22;31474;45.332;10.230;2023-06-01T07:11:47;27.10;92.80
45765;DHT22;31474;45.332;10.230;2023-06-01T07:14:15;27.10;93.30
45765;DHT22;31474;45.332;10.230;2023-06-01T07:16:41;27.20;92.80
45765;DHT22;31474;45.332;10.230;2023-06-01T07:19:07;27.20;92.90
45765;DHT22;31474;45.332;10.230;2023-06-01T07:21:33;27.20;93.10
45765;DHT22;31474;45.332;10.230;2023-06-01T07:23:59;27.30;92.50
45765;DHT22;31474;45.332;10.230;2023-06-01T07:26:25;27.40;92.90
45765;DHT22;31474;45.332;10.230;2023-06-01T07:28:52;27.40;92.80
45765;DHT22;31474;45.332;10.230;2023-06-01T07:31:19;27.50;92.20
45765;DHT22;31474;45.332;10.230;2023-06-01T07:33:45;27.50;91.70
45765;DHT22;31474;45.332;10.230;2023-06-01T07:36:11;27.50;92.00
45765;DHT22;31474;45.332;10.230;2023-06-01T07:38:37;27.60;92.50
45765;DHT22;31474;45.332;10.230;2023-06-01T07:41:02;27.80;92.10
45765;DHT22;31474;45.332;10.230;2023-06-01T07:43:28;27.90;91.80
45765;DHT22;31474;45.332;10.230;2023-06-01T07:45:54;28.10;92.00
45765;DHT22;31474;45.332;10.230;2023-06-01T07:48:20;28.00;91.70
45765;DHT22;31474;45.332;10.230;2023-06-01T07:50:46;28.20;92.30
45765;DHT22;31474;45.332;10.230;2023-06-01T07:53:11;28.30;91.80
45765;DHT22;31474;45.332;10.230;2023-06-01T07:55:37;28.30;92.00
45765;DHT22;31474;45.332;10.230;2023-06-01T07:58:03;28.30;91.80
45765;DHT22;31474;45.332;10.230;2023-06-01T08:00:29;28.40;92.00
45765;DHT22;31474;45.332;10.230;2023-06-01T08:02:55;28.50;92.10
45765;DHT22;31474;45.332;10.230;2023-06-01T08:05:23;28.50;91.70
45765;DHT22;31474;45.332;10.230;2023-06-01T08:07:48;28.50;91.70
45765;DHT22;31474;45.332;10.230;2023-06-01T08:10:14;28.50;92.10
45765;DHT22;31474;45.332;10.230;2023-06-01T08:12:40;28.40;91.70
45765;DHT22;31474;45.332;10.230;2023-06-01T08:15:09;28.50;91.30
45765;DHT22;31474;45.332;10.230;2023-06-01T08:17:38;28.50;91.20
45765;DHT22;31474;45.332;10.230;2023-06-01T08:20:04;28.60;90.80
45765;DHT22;31474;45.332;10.230;2023-06-01T08:22:36;28.60;91.10
45765;DHT22;31474;45.332;10.230;2023-06-01T08:25:02;28.70;91.20
45765;DHT22;31474;45.332;10.230;2023-06-01T08:27:28;28.70;91.50
45765;DHT22;31474;45.332;10.230;2023-06-01T08:29:54;28.70;91.20
45765;DHT22;31474;45.332;10.230;2023-06-01T08:32:19;28.60;91.10
45765;DHT22;31474;45.332;10.230;2023-06-01T08:34:46;28.60;91.30
45765;DHT22;31474;45.332;10.230;2023-06-01T08:37:15;28.70;91.40
45765;DHT22;31474;45.332;10.230;2023-06-01T08:39:41;28.80;91.30
45765;DHT22;31474;45.332;10.230;2023-06-01T08:42:42;28.90;91.10
45765;DHT22;31474;45.332;10.230;2023-06-01T08:45:04;28.90;90.50
45765;DHT22;31474;45.332;10.230;2023-06-01T08:47:31;29.00;91.00
45765;DHT22;31474;45.332;10.230;2023-06-01T08:50:00;29.10;91.10
45765;DHT22;31474;45.332;10.230;2023-06-01T08:52:28;29.10;90.90
45765;DHT22;31474;45.332;10.230;2023-06-01T08:54:58;29.20;90.60
45765;DHT22;31474;45.332;10.230;2023-06-01T08:57:25;29.10;90.10
45765;DHT22;31474;45.332;10.230;2023-06-01T08:59:51;28.90;90.00
45765;DHT22;31474;45.332;10.230;2023-06-01T09:02:16;28.80;90.50
45765;DHT22;31474;45.332;10.230;2023-06-01T09:04:42;29.00;90.60
45765;DHT22;31474;45.332;10.230;2023-06-01T09:07:13;29.00;88.70
45765;DHT22;31474;45.332;10.230;2023-06-01T09:09:39;28.90;89.90
45765;DHT22;31474;45.332;10.230;2023-06-01T09:14:44;29.30;87.40
45765;DHT22;31474;45.332;10.230;2023-06-01T09:17:15;29.20;87.90
45765;DHT22;31474;45.332;10.230;2023-06-01T09:19:44;29.20;86.60
45765;DHT22;31474;45.332;10.230;2023-06-01T09:22:10;29.10;89.40
45765;DHT22;31474;45.332;10.230;2023-06-01T09:24:37;29.10;88.80
45765;DHT22;31474;45.332;10.230;2023-06-01T09:27:02;29.20;89.20
45765;DHT22;31474;45.332;10.230;2023-06-01T09:29:29;29.20;88.30
45765;DHT22;31474;45.332;10.230;2023-06-01T09:31:55;29.20;87.80
45765;DHT22;31474;45.332;10.230;2023-06-01T09:34:22;29.20;89.70
45765;DHT22;31474;45.332;10.230;2023-06-01T09:36:52;29.40;89.40
45765;DHT22;31474;45.332;10.230;2023-06-01T09:39:20;29.60;90.30
45765;DHT22;31474;45.332;10.230;2023-06-01T09:41:56;29.70;89.10
45765;DHT22;31474;45.332;10.230;2023-06-01T09:44:36;29.70;87.40
45765;DHT22;31474;45.332;10.230;2023-06-01T09:47:07;29.80;87.80
45765;DHT22;31474;45.332;10.230;2023-06-01T09:49:41;29.70;87.50
45765;DHT22;31474;45.332;10.230;2023-06-01T09:54:41;29.70;86.50
45765;DHT22;31474;45.332;10.230;2023-06-01T09:57:08;29.40;85.40
45765;DHT22;31474;45.332;10.230;2023-06-01T09:59:42;29.20;86.30
45765;DHT22;31474;45.332;10.230;2023-06-01T10:02:15;28.80;85.50
45765;DHT22;31474;45.332;10.230;2023-06-01T10:04:44;28.90;88.50
45765;DHT22;31474;45.332;10.230;2023-06-01T10:07:13;29.10;88.10
45765;DHT22;31474;45.332;10.230;2023-06-01T10:09:41;29.20;86.80
45765;DHT22;31474;45.332;10.230;2023-06-01T10:12:07;29.40;87.20
45765;DHT22;31474;45.332;10.230;2023-06-01T10:14:36;29.50;86.50
45765;DHT22;31474;45.332;10.230;2023-06-01T10:17:03;29.50;86.50
45765;DHT22;31474;45.332;10.230;2023-06-01T10:19:29;29.50;88.60
45765;DHT22;31474;45.332;10.230;2023-06-01T10:21:59;29.40;87.70
45765;DHT22;31474;45.332;10.230;2023-06-01T10:24:25;29.40;86.60
45765;DHT22;31474;45.332;10.230;2023-06-01T10:26:59;29.50;88.50
45765;DHT22;31474;45.332;10.230;2023-06-01T10:29:29;29.40;87.20
45765;DHT22;31474;45.332;10.230;2023-06-01T10:31:56;29.30;87.60
45765;DHT22;31474;45.332;10.230;2023-06-01T10:34:37;29.40;87.80
45765;DHT22;31474;45.332;10.230;2023-06-01T10:39:32;29.80;88.50
45765;DHT22;31474;45.332;10.230;2023-06-01T10:44:48;30.00;85.50
45765;DHT22;31474;45.332;10.230;2023-06-01T10:52:34;30.10;87.90
45765;DHT22;31474;45.332;10.230;2023-06-01T10:57:35;30.20;86.20
45765;DHT22;31474;45.332;10.230;2023-06-01T11:03:02;30.10;86.70
45765;DHT22;31474;45.332;10.230;2023-06-01T11:05:47;30.00;88.40
45765;DHT22;31474;45.332;10.230;2023-06-01T11:13:34;29.50;85.60
45765;DHT22;31474;45.332;10.230;2023-06-01T11:18:49;29.10;88.50
45765;DHT22;31474;45.332;10.230;2023-06-01T11:21:21;29.20;87.90
45765;DHT22;31474;45.332;10.230;2023-06-01T11:23:47;29.30;86.50
45765;DHT22;31474;45.332;10.230;2023-06-01T11:26:15;29.20;87.20
45765;DHT22;31474;45.332;10.230;2023-06-01T11:28:45;29.30;86.70
45765;DHT22;31474;45.332;10.230;2023-06-01T11:31:18;29.20;87.80
45765;DHT22;31474;45.332;10.230;2023-06-01T11:33:52;29.30;87.50
45765;DHT22;31474;45.332;10.230;2023-06-01T11:36:20;29.50;86.60
45765;DHT22;31474;45.332;10.230;2023-06-01T11:38:49;29.70;88.20
45765;DHT22;31474;45.332;10.230;2023-06-01T11:41:15;29.80;87.90
45765;DHT22;31474;45.332;10.230;2023-06-01T11:43:40;29.70;86.20
45765;DHT22;31474;45.332;10.230;2023-06-01T11:46:07;29.80;87.40
45765;DHT22;31474;45.332;10.230;2023-06-01T11:48:34;29.90;85.80
45765;DHT22;31474;45.332;10.230;2023-06-01T11:51:03;29.90;85.40
45765;DHT22;31474;45.332;10.230;2023-06-01T11:53:30;29.80;86.50
45765;DHT22;31474;45.332;10.230;2023-06-01T11:55:59;29.90;87.10
45765;DHT22;31474;45.332;10.230;2023-06-01T11:58:29;29.90;86.60
45765;DHT22;31474;45.332;10.230;2023-06-01T12:00:56;30.00;87.60
45765;DHT22;31474;45.332;10.230;2023-06-01T12:03:23;30.00;89.40
45765;DHT22;31474;45.332;10.230;2023-06-01T12:05:50;29.90;87.70
45765;DHT22;31474;45.332;10.230;2023-06-01T12:08:22;29.70;86.40
45765;DHT22;31474;45.332;10.230;2023-06-01T12:10:49;29.40;85.90
45765;DHT22;31474;45.332;10.230;2023-06-01T12:13:17;29.20;86.40
45765;DHT22;31474;45.332;10.230;2023-06-01T12:15:44;29.00;87.30
45765;DHT22;31474;45.332;10.230;2023-06-01T12:18:10;28.80;85.60
45765;DHT22;31474;45.332;10.230;2023-06-01T12:20:40;28.60;86.50
45765;DHT22;31474;45.332;10.230;2023-06-01T12:25:48;28.90;87.80
45765;DHT22;31474;45.332;10.230;2023-06-01T12:28:15;28.90;86.40
45765;DHT22;31474;45.332;10.230;2023-06-01T12:30:40;29.00;88.40
45765;DHT22;31474;45.332;10.230;2023-06-01T12:33:06;29.20;87.40
45765;DHT22;31474;45.332;10.230;2023-06-01T12:35:32;29.40;87.40
45765;DHT22;31474;45.332;10.230;2023-06-01T12:38:07;29.60;88.30
45765;DHT22;31474;45.332;10.230;2023-06-01T12:40:35;29.70;86.60
45765;DHT22;31474;45.332;10.230;2023-06-01T12:43:02;29.60;86.00
45765;DHT22;31474;45.332;10.230;2023-06-01T12:45:36;29.70;87.10
45765;DHT22;31474;45.332;10.230;2023-06-01T12:48:02;29.80;85.10
45765;DHT22;31474;45.332;10.230;2023-06-01T12:50:29;29.70;87.00
45765;DHT22;31474;45.332;10.230;2023-06-01T12:52:54;29.70;87.40
45765;DHT22;31474;45.332;10.230;2023-06-01T12:55:20;29.90;88.70
45765;DHT22;31474;45.332;10.230;2023-06-01T12:57:52;30.00;86.00
45765;DHT22;31474;45.332;10.230;2023-06-01T13:00:18;29.90;85.20
45765;DHT22;31474;45.332;10.230;2023-06-01T13:02:45;30.00;85.40
45765;DHT22;31474;45.332;10.230;2023-06-01T13:05:16;30.00;86.30
45765;DHT22;31474;45.332;10.230;2023-06-01T13:07:43;30.10;84.80
45765;DHT22;31474;45.332;10.230;2023-06-01T13:10:11;30.00;85.00
45765;DHT22;31474;45.332;10.230;2023-06-01T13:12:37;29.80;85.40
45765;DHT22;31474;45.332;10.230;2023-06-01T13:15:03;29.70;85.20
45765;DHT22;31474;45.332;10.230;2023-06-01T13:17:29;29.50;86.20
45765;DHT22;31474;45.332;10.230;2023-06-01T13:19:55;29.40;87.60
45765;DHT22;31474;45.332;10.230;2023-06-01T13:22:21;29.40;88.10
45765;DHT22;31474;45.332;10.230;2023-06-01T13:24:47;29.40;87.00
45765;DHT22;31474;45.332;10.230;2023-06-01T13:27:13;29.40;86.10
45765;DHT22;31474;45.332;10.230;2023-06-01T13:29:39;29.30;87.10
45765;DHT22;31474;45.332;10.230;2023-06-01T13:32:05;29.30;87.60
45765;DHT22;31474;45.332;10.230;2023-06-01T13:34:31;29.20;86.40
45765;DHT22;31474;45.332;10.230;2023-06-01T13:36:57;29.40;87.60
45765;DHT22;31474;45.332;10.230;2023-06-01T13:39:23;29.60;87.70
45765;DHT22;31474;45.332;10.230;2023-06-01T13:41:49;29.70;84.90
45765;DHT22;31474;45.332;10.230;2023-06-01T13:44:14;29.50;85.50
45765;DHT22;31474;45.332;10.230;2023-06-01T13:46:42;29.60;86.30
45765;DHT22;31474;45.332;10.230;2023-06-01T13:49:09;29.60;84.50
45765;DHT22;31474;45.332;10.230;2023-06-01T13:51:35;29.70;87.60
45765;DHT22;31474;45.332;10.230;2023-06-01T13:54:03;29.80;87.50
45765;DHT22;31474;45.332;10.230;2023-06-01T13:56:29;29.80;85.80
45765;DHT22;31474;45.332;10.230;2023-06-01T13:58:55;29.80;87.30
45765;DHT22;31474;45.332;10.230;2023-06-01T14:01:21;29.80;85.20
45765;DHT22;31474;45.332;10.230;2023-06-01T14:03:47;29.90;85.60
45765;DHT22;31474;45.332;10.230;2023-06-01T14:06:13;30.00;85.90
45765;DHT22;31474;45.332;10.230;2023-06-01T14:08:38;29.90;84.40
45765;DHT22;31474;45.332;10.230;2023-06-01T14:11:04;29.90;84.40
45765;DHT22;31474;45.332;10.230;2023-06-01T14:13:30;29.80;82.40
45765;DHT22;31474;45.332;10.230;2023-06-01T14:15:56;29.40;83.00
45765;DHT22;31474;45.332;10.230;2023-06-01T14:18:22;29.50;83.90
45765;DHT22;31474;45.332;10.230;2023-06-01T14:20:47;29.60;84.40
45765;DHT22;31474;45.332;10.230;2023-06-01T14:23:13;29.60;84.30
45765;DHT22;31474;45.332;10.230;2023-06-01T14:25:39;29.60;86.20
45765;DHT22;31474;45.332;10.230;2023-06-01T14:28:05;29.40;85.80
45765;DHT22;31474;45.332;10.230;2023-06-01T14:30:31;29.30;86.90
45765;DHT22;31474;45.332;10.230;2023-06-01T14:32:57;29.20;86.40
45765;DHT22;31474;45.332;10.230;2023-06-01T14:35:22;29.10;86.30
45765;DHT22;31474;45.332;10.230;2023-06-01T14:37:48;29.00;87.40
45765;DHT22;31474;45.332;10.230;2023-06-01T14:40:14;29.00;86.80
45765;DHT22;31474;45.332;10.230;2023-06-01T14:42:40;28.90;86.80
45765;DHT22;31474;45.332;10.230;2023-06-01T14:45:06;29.00;86.60
45765;DHT22;31474;45.332;10.230;2023-06-01T14:47:32;29.00;86.10
45765;DHT22;31474;45.332;10.230;2023-06-01T14:49:58;29.20;86.50
45765;DHT22;31474;45.332;10.230;2023-06-01T14:52:23;29.20;86.00
45765;DHT22;31474;45.332;10.230;2023-06-01T14:54:49;29.20;86.50
45765;DHT22;31474;45.332;10.230;2023-06-01T14:57:15;29.20;85.40
45765;DHT22;31474;45.332;10.230;2023-06-01T14:59:41;29.20;85.40
45765;DHT22;31474;45.332;10.230;2023-06-01T15:02:07;29.20;85.90
45765;DHT22;31474;45.332;10.230;2023-06-01T15:04:33;29.20;86.10
45765;DHT22;31474;45.332;10.230;2023-06-01T15:06:59;29.20;85.30
45765;DHT22;31474;45.332;10.230;2023-06-01T15:09:25;29.20;85.90
45765;DHT22;31474;45.332;10.230;2023-06-01T15:11:51;29.20;85.00
45765;DHT22;31474;45.332;10.230;2023-06-01T15:14:16;29.20;84.70
45765;DHT22;31474;45.332;10.230;2023-06-01T15:16:42;29.20;86.20
45765;DHT22;31474;45.332;10.230;2023-06-01T15:19:08;29.30;84.90
45765;DHT22;31474;45.332;10.230;2023-06-01T15:21:33;29.20;84.50
45765;DHT22;31474;45.332;10.230;2023-06-01T15:23:59;29.20;84.90
45765;DHT22;31474;45.332;10.230;2023-06-01T15:26:25;29.20;85.30
45765;DHT22;31474;45.332;10.230;2023-06-01T15:28:51;29.30;85.00
45765;DHT22;31474;45.332;10.230;2023-06-01T15:31:17;29.30;86.30
45765;DHT22;31474;45.332;10.230;2023-06-01T15:33:42;29.30;84.90
45765;DHT22;31474;45.332;10.230;2023-06-01T15:36:08;29.30;84.30
45765;DHT22;31474;45.332;10.230;2023-06-01T15:38:34;29.20;83.60
45765;DHT22;31474;45.332;10.230;2023-06-01T15:41:04;29.10;84.60
45765;DHT22;31474;45.332;10.230;2023-06-01T15:43:29;29.10;85.20
45765;DHT22;31474;45.332;10.230;2023-06-01T15:45:55;29.00;84.60
45765;DHT22;31474;45.332;10.230;2023-06-01T15:48:21;28.90;82.90
45765;DHT22;31474;45.332;10.230;2023-06-01T15:50:47;28.80;83.80
45765;DHT22;31474;45.332;10.230;2023-06-01T15:53:12;28.80;83.70